sensor_id;sensor_type;location;lat;lon;timestamp;P1;durP1;ratioP1;P2;durP2;ratioP2
15273;SDS011;7738;49.532;11.156;2022-11-13T00:00:41;11.10;;;7.03;;
15273;SDS011;7738;49.532;11.156;2022-11-13T00:03:30;14.45;;;8.40;;
15273;SDS011;7738;49.532;11.156;2022-11-13T00:06:18;11.90;;;7.80;;
15273;SDS011;7738;49.532;11.156;2022-11-13T00:09:07;15.18;;;8.52;;
15273;SDS011;7738;49.532;11.156;2022-11-13T00:11:57;17.48;;;9.82;;
15273;SDS011;7738;49.532;11.156;2022-11-13T00:14:46;10.27;;;6.87;;
15273;SDS011;7738;49.532;11.156;2022-11-13T00:17:37;11.20;;;8.13;;
15273;SDS011;7738;49.532;11.156;2022-11-13T00:20:26;11.75;;;7.72;;
15273;SDS011;7738;49.532;11.156;2022-11-13T00:23:15;11.53;;;7.13;;
15273;SDS011;7738;49.532;11.156;2022-11-13T00:26:04;12.27;;;6.60;;
15273;SDS011;7738;49.532;11.156;2022-11-13T00:28:54;12.43;;;6.90;;
15273;SDS011;7738;49.532;11.156;2022-11-13T00:31:43;8.70;;;6.50;;
15273;SDS011;7738;49.532;11.156;2022-11-13T00:34:34;9.03;;;6.83;;
15273;SDS011;7738;49.532;11.156;2022-11-13T00:37:32;12.00;;;6.45;;
15273;SDS011;7738;49.532;11.156;2022-11-13T00:40:21;6.90;;;5.38;;
15273;SDS011;7738;49.532;11.156;2022-11-13T00:43:09;8.52;;;6.05;;
15273;SDS011;7738;49.532;11.156;2022-11-13T00:45:58;9.73;;;6.60;;
15273;SDS011;7738;49.532;11.156;2022-11-13T00:48:47;8.17;;;6.37;;
15273;SDS011;7738;49.532;11.156;2022-11-13T00:51:38;31.17;;;15.07;;
15273;SDS011;7738;49.532;11.156;2022-11-13T00:54:26;15.47;;;9.20;;
15273;SDS011;7738;49.532;11.156;2022-11-13T00:57:15;16.40;;;9.02;;
15273;SDS011;7738;49.532;11.156;2022-11-13T01:00:05;9.93;;;6.80;;
15273;SDS011;7738;49.532;11.156;2022-11-13T01:02:54;9.20;;;6.73;;
15273;SDS011;7738;49.532;11.156;2022-11-13T01:05:44;10.93;;;7.80;;
15273;SDS011;7738;49.532;11.156;2022-11-13T01:08:36;8.95;;;5.85;;
15273;SDS011;7738;49.532;11.156;2022-11-13T01:11:25;9.17;;;6.87;;
15273;SDS011;7738;49.532;11.156;2022-11-13T01:14:14;11.57;;;6.90;;
15273;SDS011;7738;49.532;11.156;2022-11-13T01:17:03;8.53;;;6.40;;
15273;SDS011;7738;49.532;11.156;2022-11-13T01:19:51;13.57;;;6.37;;
15273;SDS011;7738;49.532;11.156;2022-11-13T01:22:40;7.93;;;6.03;;
15273;SDS011;7738;49.532;11.156;2022-11-13T01:25:31;10.00;;;6.60;;
15273;SDS011;7738;49.532;11.156;2022-11-13T01:28:20;8.20;;;7.17;;
15273;SDS011;7738;49.532;11.156;2022-11-13T01:31:10;8.73;;;6.27;;
15273;SDS011;7738;49.532;11.156;2022-11-13T01:34:01;8.40;;;6.10;;
15273;SDS011;7738;49.532;11.156;2022-11-13T01:36:49;8.85;;;5.90;;
15273;SDS011;7738;49.532;11.156;2022-11-13T01:39:38;8.90;;;6.90;;
15273;SDS011;7738;49.532;11.156;2022-11-13T01:44:47;9.37;;;6.10;;
15273;SDS011;7738;49.532;11.156;2022-11-13T01:47:36;11.23;;;7.22;;
15273;SDS011;7738;49.532;11.156;2022-11-13T01:50:25;6.43;;;5.82;;
15273;SDS011;7738;49.532;11.156;2022-11-13T01:53:14;9.77;;;6.17;;
15273;SDS011;7738;49.532;11.156;2022-11-13T01:56:03;8.27;;;6.03;;
15273;SDS011;7738;49.532;11.156;2022-11-13T01:58:53;10.20;;;6.97;;
15273;SDS011;7738;49.532;11.156;2022-11-13T02:01:45;9.75;;;6.53;;
15273;SDS011;7738;49.532;11.156;2022-11-13T02:04:34;10.03;;;6.80;;
15273;SDS011;7738;49.532;11.156;2022-11-13T02:07:23;6.83;;;5.53;;
15273;SDS011;7738;49.532;11.156;2022-11-13T02:10:13;8.52;;;4.88;;
15273;SDS011;7738;49.532;11.156;2022-11-13T02:13:01;10.93;;;6.70;;
15273;SDS011;7738;49.532;11.156;2022-11-13T02:15:50;7.63;;;6.00;;
15273;SDS011;7738;49.532;11.156;2022-11-13T02:18:43;9.27;;;5.77;;
15273;SDS011;7738;49.532;11.156;2022-11-13T02:21:35;10.07;;;6.60;;
15273;SDS011;7738;49.532;11.156;2022-11-13T02:24:29;9.40;;;6.13;;
15273;SDS011;7738;49.532;11.156;2022-11-13T02:27:23;8.80;;;6.70;;
15273;SDS011;7738;49.532;11.156;2022-11-13T02:30:14;8.52;;;6.38;;
15273;SDS011;7738;49.532;11.156;2022-11-13T02:33:20;9.23;;;6.03;;
15273;SDS011;7738;49.532;11.156;2022-11-13T02:36:09;10.20;;;5.77;;
15273;SDS011;7738;49.532;11.156;2022-11-13T02:39:00;7.97;;;5.80;;
15273;SDS011;7738;49.532;11.156;2022-11-13T02:41:52;9.95;;;6.75;;
15273;SDS011;7738;49.532;11.156;2022-11-13T02:44:41;9.80;;;5.97;;
15273;SDS011;7738;49.532;11.156;2022-11-13T02:47:29;8.95;;;5.93;;
15273;SDS011;7738;49.532;11.156;2022-11-13T02:50:19;13.18;;;6.85;;
15273;SDS011;7738;49.532;11.156;2022-11-13T02:53:07;11.00;;;6.50;;
15273;SDS011;7738;49.532;11.156;2022-11-13T02:55:56;8.65;;;6.13;;
15273;SDS011;7738;49.532;11.156;2022-11-13T02:58:48;10.38;;;6.18;;
15273;SDS011;7738;49.532;11.156;2022-11-13T03:01:36;9.10;;;6.27;;
15273;SDS011;7738;49.532;11.156;2022-11-13T03:04:26;7.75;;;5.72;;
15273;SDS011;7738;49.532;11.156;2022-11-13T03:07:35;8.45;;;5.70;;
15273;SDS011;7738;49.532;11.156;2022-11-13T03:10:23;6.03;;;4.38;;
15273;SDS011;7738;49.532;11.156;2022-11-13T03:13:12;7.00;;;5.28;;
15273;SDS011;7738;49.532;11.156;2022-11-13T03:16:10;7.67;;;5.17;;
15273;SDS011;7738;49.532;11.156;2022-11-13T03:19:00;8.35;;;4.57;;
15273;SDS011;7738;49.532;11.156;2022-11-13T03:21:49;7.22;;;4.95;;
15273;SDS011;7738;49.532;11.156;2022-11-13T03:24:37;6.30;;;4.30;;
15273;SDS011;7738;49.532;11.156;2022-11-13T03:27:26;6.22;;;4.55;;
15273;SDS011;7738;49.532;11.156;2022-11-13T03:30:15;7.07;;;4.53;;
15273;SDS011;7738;49.532;11.156;2022-11-13T03:33:07;6.60;;;4.33;;
15273;SDS011;7738;49.532;11.156;2022-11-13T03:35:55;8.73;;;4.90;;
15273;SDS011;7738;49.532;11.156;2022-11-13T03:38:44;7.07;;;4.57;;
15273;SDS011;7738;49.532;11.156;2022-11-13T03:41:33;6.75;;;4.93;;
15273;SDS011;7738;49.532;11.156;2022-11-13T03:44:22;10.03;;;5.17;;
15273;SDS011;7738;49.532;11.156;2022-11-13T03:47:10;7.07;;;4.87;;
15273;SDS011;7738;49.532;11.156;2022-11-13T03:50:01;7.60;;;5.20;;
15273;SDS011;7738;49.532;11.156;2022-11-13T03:52:51;6.63;;;4.63;;
15273;SDS011;7738;49.532;11.156;2022-11-13T03:55:40;5.73;;;5.00;;
15273;SDS011;7738;49.532;11.156;2022-11-13T03:58:29;6.83;;;4.57;;
15273;SDS011;7738;49.532;11.156;2022-11-13T04:01:24;6.90;;;4.70;;
15273;SDS011;7738;49.532;11.156;2022-11-13T04:04:12;7.30;;;4.90;;
15273;SDS011;7738;49.532;11.156;2022-11-13T04:07:05;7.63;;;5.10;;
15273;SDS011;7738;49.532;11.156;2022-11-13T04:09:53;9.33;;;6.63;;
15273;SDS011;7738;49.532;11.156;2022-11-13T04:12:42;9.30;;;4.70;;
15273;SDS011;7738;49.532;11.156;2022-11-13T04:15:31;6.50;;;4.43;;
15273;SDS011;7738;49.532;11.156;2022-11-13T04:18:20;8.33;;;4.80;;
15273;SDS011;7738;49.532;11.156;2022-11-13T04:21:09;5.40;;;4.90;;
15273;SDS011;7738;49.532;11.156;2022-11-13T04:24:00;9.13;;;4.77;;
15273;SDS011;7738;49.532;11.156;2022-11-13T04:26:49;5.87;;;4.93;;
15273;SDS011;7738;49.532;11.156;2022-11-13T04:29:38;4.72;;;4.18;;
15273;SDS011;7738;49.532;11.156;2022-11-13T04:32:26;5.75;;;4.10;;
15273;SDS011;7738;49.532;11.156;2022-11-13T04:35:15;6.57;;;4.03;;
15273;SDS011;7738;49.532;11.156;2022-11-13T04:38:03;5.47;;;4.70;;
15273;SDS011;7738;49.532;11.156;2022-11-13T04:40:55;7.30;;;4.95;;
15273;SDS011;7738;49.532;11.156;2022-11-13T04:43:56;9.90;;;4.95;;
15273;SDS011;7738;49.532;11.156;2022-11-13T04:46:44;8.03;;;5.53;;
15273;SDS011;7738;49.532;11.156;2022-11-13T04:49:33;9.40;;;5.33;;
15273;SDS011;7738;49.532;11.156;2022-11-13T04:52:22;8.50;;;5.87;;
15273;SDS011;7738;49.532;11.156;2022-11-13T04:55:12;7.73;;;5.43;;
15273;SDS011;7738;49.532;11.156;2022-11-13T04:58:04;8.77;;;5.03;;
15273;SDS011;7738;49.532;11.156;2022-11-13T05:00:52;8.27;;;5.17;;
15273;SDS011;7738;49.532;11.156;2022-11-13T05:03:41;8.73;;;4.53;;
15273;SDS011;7738;49.532;11.156;2022-11-13T05:06:30;7.20;;;5.53;;
15273;SDS011;7738;49.532;11.156;2022-11-13T05:09:18;11.20;;;6.87;;
15273;SDS011;7738;49.532;11.156;2022-11-13T05:12:07;8.53;;;6.17;;
15273;SDS011;7738;49.532;11.156;2022-11-13T05:14:59;10.63;;;6.67;;
15273;SDS011;7738;49.532;11.156;2022-11-13T05:17:48;8.73;;;5.43;;
15273;SDS011;7738;49.532;11.156;2022-11-13T05:20:38;9.47;;;5.90;;
15273;SDS011;7738;49.532;11.156;2022-11-13T05:23:27;9.53;;;6.00;;
15273;SDS011;7738;49.532;11.156;2022-11-13T05:26:16;7.77;;;5.33;;
15273;SDS011;7738;49.532;11.156;2022-11-13T05:29:05;7.77;;;5.83;;
15273;SDS011;7738;49.532;11.156;2022-11-13T05:31:56;6.97;;;5.07;;
15273;SDS011;7738;49.532;11.156;2022-11-13T05:34:45;7.47;;;5.13;;
15273;SDS011;7738;49.532;11.156;2022-11-13T05:37:34;5.47;;;4.80;;
15273;SDS011;7738;49.532;11.156;2022-11-13T05:40:22;10.97;;;6.13;;
15273;SDS011;7738;49.532;11.156;2022-11-13T05:43:11;7.73;;;5.27;;
15273;SDS011;7738;49.532;11.156;2022-11-13T05:46:00;7.40;;;5.97;;
15273;SDS011;7738;49.532;11.156;2022-11-13T05:48:53;11.90;;;6.80;;
15273;SDS011;7738;49.532;11.156;2022-11-13T05:51:44;8.87;;;6.23;;
15273;SDS011;7738;49.532;11.156;2022-11-13T05:54:32;12.23;;;6.40;;
15273;SDS011;7738;49.532;11.156;2022-11-13T05:57:21;12.63;;;5.93;;
15273;SDS011;7738;49.532;11.156;2022-11-13T06:00:10;6.57;;;4.83;;
15273;SDS011;7738;49.532;11.156;2022-11-13T06:02:59;6.87;;;4.90;;
15273;SDS011;7738;49.532;11.156;2022-11-13T06:05:50;6.13;;;5.17;;
15273;SDS011;7738;49.532;11.156;2022-11-13T06:08:39;7.77;;;5.87;;
15273;SDS011;7738;49.532;11.156;2022-11-13T06:11:29;7.47;;;5.87;;
15273;SDS011;7738;49.532;11.156;2022-11-13T06:14:18;9.57;;;6.10;;
15273;SDS011;7738;49.532;11.156;2022-11-13T06:17:07;10.07;;;5.83;;
15273;SDS011;7738;49.532;11.156;2022-11-13T06:19:55;14.13;;;6.43;;
15273;SDS011;7738;49.532;11.156;2022-11-13T06:22:47;10.17;;;6.73;;
15273;SDS011;7738;49.532;11.156;2022-11-13T06:25:35;7.40;;;5.53;;
15273;SDS011;7738;49.532;11.156;2022-11-13T06:28:24;9.60;;;5.80;;
15273;SDS011;7738;49.532;11.156;2022-11-13T06:31:15;9.03;;;6.17;;
15273;SDS011;7738;49.532;11.156;2022-11-13T06:34:05;9.97;;;5.80;;
15273;SDS011;7738;49.532;11.156;2022-11-13T06:36:54;8.50;;;5.77;;
15273;SDS011;7738;49.532;11.156;2022-11-13T06:39:48;8.50;;;5.60;;
15273;SDS011;7738;49.532;11.156;2022-11-13T06:42:37;7.87;;;5.10;;
15273;SDS011;7738;49.532;11.156;2022-11-13T06:45:25;6.13;;;4.43;;
15273;SDS011;7738;49.532;11.156;2022-11-13T06:48:14;8.27;;;5.07;;
15273;SDS011;7738;49.532;11.156;2022-11-13T06:51:03;8.70;;;5.67;;
15273;SDS011;7738;49.532;11.156;2022-11-13T06:53:53;9.00;;;5.77;;
15273;SDS011;7738;49.532;11.156;2022-11-13T06:56:44;8.77;;;6.20;;
15273;SDS011;7738;49.532;11.156;2022-11-13T06:59:33;9.37;;;5.33;;
15273;SDS011;7738;49.532;11.156;2022-11-13T07:02:22;8.77;;;5.90;;
15273;SDS011;7738;49.532;11.156;2022-11-13T07:05:10;9.40;;;5.90;;
15273;SDS011;7738;49.532;11.156;2022-11-13T07:08:00;9.47;;;5.80;;
15273;SDS011;7738;49.532;11.156;2022-11-13T07:10:51;7.47;;;5.90;;
15273;SDS011;7738;49.532;11.156;2022-11-13T07:13:44;9.00;;;7.80;;
15273;SDS011;7738;49.532;11.156;2022-11-13T07:16:33;9.57;;;7.17;;
15273;SDS011;7738;49.532;11.156;2022-11-13T07:19:42;10.67;;;7.30;;
15273;SDS011;7738;49.532;11.156;2022-11-13T07:22:31;9.97;;;6.33;;
15273;SDS011;7738;49.532;11.156;2022-11-13T07:25:19;11.30;;;7.97;;
15273;SDS011;7738;49.532;11.156;2022-11-13T07:28:08;16.53;;;9.17;;
15273;SDS011;7738;49.532;11.156;2022-11-13T07:30:59;14.43;;;8.47;;
15273;SDS011;7738;49.532;11.156;2022-11-13T07:33:48;14.13;;;8.73;;
15273;SDS011;7738;49.532;11.156;2022-11-13T07:36:37;13.43;;;8.77;;
15273;SDS011;7738;49.532;11.156;2022-11-13T07:39:26;10.77;;;6.27;;
15273;SDS011;7738;49.532;11.156;2022-11-13T07:42:15;14.03;;;9.17;;
15273;SDS011;7738;49.532;11.156;2022-11-13T07:45:04;14.73;;;9.60;;
15273;SDS011;7738;49.532;11.156;2022-11-13T07:47:58;13.90;;;9.03;;
15273;SDS011;7738;49.532;11.156;2022-11-13T07:50:48;18.42;;;8.63;;
15273;SDS011;7738;49.532;11.156;2022-11-13T07:53:37;20.00;;;11.73;;
15273;SDS011;7738;49.532;11.156;2022-11-13T07:56:26;16.10;;;10.43;;
15273;SDS011;7738;49.532;11.156;2022-11-13T07:59:14;20.57;;;11.27;;
15273;SDS011;7738;49.532;11.156;2022-11-13T08:02:03;14.80;;;9.73;;
15273;SDS011;7738;49.532;11.156;2022-11-13T08:04:54;16.10;;;9.43;;
15273;SDS011;7738;49.532;11.156;2022-11-13T08:07:45;10.03;;;7.00;;
15273;SDS011;7738;49.532;11.156;2022-11-13T08:10:35;10.23;;;7.30;;
15273;SDS011;7738;49.532;11.156;2022-11-13T08:13:24;12.77;;;7.80;;
15273;SDS011;7738;49.532;11.156;2022-11-13T08:16:12;13.87;;;6.40;;
15273;SDS011;7738;49.532;11.156;2022-11-13T08:19:01;12.57;;;7.87;;
15273;SDS011;7738;49.532;11.156;2022-11-13T08:21:53;18.50;;;7.90;;
15273;SDS011;7738;49.532;11.156;2022-11-13T08:24:41;13.57;;;9.93;;
15273;SDS011;7738;49.532;11.156;2022-11-13T08:27:30;19.70;;;9.27;;
15273;SDS011;7738;49.532;11.156;2022-11-13T08:30:19;17.20;;;10.45;;
15273;SDS011;7738;49.532;11.156;2022-11-13T08:33:08;23.55;;;14.40;;
15273;SDS011;7738;49.532;11.156;2022-11-13T08:35:58;22.73;;;14.95;;
15273;SDS011;7738;49.532;11.156;2022-11-13T08:38:49;19.35;;;13.80;;
15273;SDS011;7738;49.532;11.156;2022-11-13T08:41:38;16.63;;;10.15;;
15273;SDS011;7738;49.532;11.156;2022-11-13T08:44:27;10.05;;;6.68;;
15273;SDS011;7738;49.532;11.156;2022-11-13T08:47:15;10.35;;;7.05;;
15273;SDS011;7738;49.532;11.156;2022-11-13T08:50:07;17.23;;;10.48;;
15273;SDS011;7738;49.532;11.156;2022-11-13T08:52:57;15.75;;;11.73;;
15273;SDS011;7738;49.532;11.156;2022-11-13T08:55:48;13.48;;;9.55;;
15273;SDS011;7738;49.532;11.156;2022-11-13T08:58:37;15.68;;;8.07;;
15273;SDS011;7738;49.532;11.156;2022-11-13T09:01:26;10.77;;;6.68;;
15273;SDS011;7738;49.532;11.156;2022-11-13T09:04:15;11.38;;;7.05;;
15273;SDS011;7738;49.532;11.156;2022-11-13T09:07:05;8.70;;;5.45;;
15273;SDS011;7738;49.532;11.156;2022-11-13T09:09:53;7.45;;;4.15;;
15273;SDS011;7738;49.532;11.156;2022-11-13T09:12:45;3.90;;;3.15;;
15273;SDS011;7738;49.532;11.156;2022-11-13T09:15:35;7.65;;;3.38;;
15273;SDS011;7738;49.532;11.156;2022-11-13T09:18:24;4.05;;;3.20;;
15273;SDS011;7738;49.532;11.156;2022-11-13T09:21:14;5.38;;;2.72;;
15273;SDS011;7738;49.532;11.156;2022-11-13T09:24:03;4.93;;;2.60;;
15273;SDS011;7738;49.532;11.156;2022-11-13T09:26:52;4.85;;;3.13;;
15273;SDS011;7738;49.532;11.156;2022-11-13T09:29:43;5.45;;;2.85;;
15273;SDS011;7738;49.532;11.156;2022-11-13T09:32:39;5.25;;;3.20;;
15273;SDS011;7738;49.532;11.156;2022-11-13T09:35:28;5.32;;;3.10;;
15273;SDS011;7738;49.532;11.156;2022-11-13T09:38:21;3.22;;;2.10;;
15273;SDS011;7738;49.532;11.156;2022-11-13T09:41:10;2.92;;;2.15;;
15273;SDS011;7738;49.532;11.156;2022-11-13T09:44:00;3.30;;;2.00;;
15273;SDS011;7738;49.532;11.156;2022-11-13T09:46:54;5.68;;;2.97;;
15273;SDS011;7738;49.532;11.156;2022-11-13T09:49:44;3.20;;;2.22;;
15273;SDS011;7738;49.532;11.156;2022-11-13T09:52:35;2.92;;;2.05;;
15273;SDS011;7738;49.532;11.156;2022-11-13T09:55:27;3.75;;;2.15;;
15273;SDS011;7738;49.532;11.156;2022-11-13T09:58:21;3.78;;;2.47;;
15273;SDS011;7738;49.532;11.156;2022-11-13T10:01:14;3.97;;;2.33;;
15273;SDS011;7738;49.532;11.156;2022-11-13T10:04:06;4.50;;;2.30;;
15273;SDS011;7738;49.532;11.156;2022-11-13T10:09:53;8.90;;;2.65;;
15273;SDS011;7738;49.532;11.156;2022-11-13T10:12:45;4.07;;;2.60;;
15273;SDS011;7738;49.532;11.156;2022-11-13T10:15:35;4.13;;;2.53;;
15273;SDS011;7738;49.532;11.156;2022-11-13T10:18:26;4.53;;;2.90;;
15273;SDS011;7738;49.532;11.156;2022-11-13T10:21:23;6.05;;;3.35;;
15273;SDS011;7738;49.532;11.156;2022-11-13T10:24:13;4.22;;;2.55;;
15273;SDS011;7738;49.532;11.156;2022-11-13T10:27:06;6.15;;;2.85;;
15273;SDS011;7738;49.532;11.156;2022-11-13T10:30:11;4.25;;;3.08;;
15273;SDS011;7738;49.532;11.156;2022-11-13T10:33:01;6.00;;;3.08;;
15273;SDS011;7738;49.532;11.156;2022-11-13T10:35:54;6.75;;;2.53;;
15273;SDS011;7738;49.532;11.156;2022-11-13T10:38:52;4.55;;;2.45;;
15273;SDS011;7738;49.532;11.156;2022-11-13T10:41:45;3.95;;;2.50;;
15273;SDS011;7738;49.532;11.156;2022-11-13T10:44:34;3.42;;;2.20;;
15273;SDS011;7738;49.532;11.156;2022-11-13T10:47:25;4.13;;;2.17;;
15273;SDS011;7738;49.532;11.156;2022-11-13T10:50:34;4.38;;;2.42;;
15273;SDS011;7738;49.532;11.156;2022-11-13T10:53:24;4.38;;;2.22;;
15273;SDS011;7738;49.532;11.156;2022-11-13T10:56:26;3.65;;;2.35;;
15273;SDS011;7738;49.532;11.156;2022-11-13T10:59:16;3.63;;;2.13;;
15273;SDS011;7738;49.532;11.156;2022-11-13T11:02:14;5.03;;;2.38;;
15273;SDS011;7738;49.532;11.156;2022-11-13T11:05:04;4.07;;;1.95;;
15273;SDS011;7738;49.532;11.156;2022-11-13T11:07:55;2.97;;;1.98;;
15273;SDS011;7738;49.532;11.156;2022-11-13T11:10:52;5.05;;;2.20;;
15273;SDS011;7738;49.532;11.156;2022-11-13T11:14:05;3.67;;;2.20;;
15273;SDS011;7738;49.532;11.156;2022-11-13T11:16:57;3.10;;;1.77;;
15273;SDS011;7738;49.532;11.156;2022-11-13T11:19:54;4.65;;;2.40;;
15273;SDS011;7738;49.532;11.156;2022-11-13T11:22:44;3.80;;;2.05;;
15273;SDS011;7738;49.532;11.156;2022-11-13T11:25:37;3.13;;;2.03;;
15273;SDS011;7738;49.532;11.156;2022-11-13T11:28:30;4.38;;;2.17;;
15273;SDS011;7738;49.532;11.156;2022-11-13T11:31:24;5.90;;;2.85;;
15273;SDS011;7738;49.532;11.156;2022-11-13T11:34:15;4.07;;;2.40;;
15273;SDS011;7738;49.532;11.156;2022-11-13T11:37:10;4.88;;;2.50;;
15273;SDS011;7738;49.532;11.156;2022-11-13T11:40:01;4.35;;;2.35;;
15273;SDS011;7738;49.532;11.156;2022-11-13T11:42:53;3.47;;;2.03;;
15273;SDS011;7738;49.532;11.156;2022-11-13T11:45:43;3.75;;;2.38;;
15273;SDS011;7738;49.532;11.156;2022-11-13T11:48:35;3.63;;;2.67;;
15273;SDS011;7738;49.532;11.156;2022-11-13T11:51:25;3.70;;;2.10;;
15273;SDS011;7738;49.532;11.156;2022-11-13T11:54:20;5.15;;;2.33;;
15273;SDS011;7738;49.532;11.156;2022-11-13T11:57:14;4.97;;;2.22;;
15273;SDS011;7738;49.532;11.156;2022-11-13T12:00:12;4.40;;;1.98;;
15273;SDS011;7738;49.532;11.156;2022-11-13T12:03:15;4.90;;;2.83;;
15273;SDS011;7738;49.532;11.156;2022-11-13T12:06:32;5.72;;;2.67;;
15273;SDS011;7738;49.532;11.156;2022-11-13T12:09:25;3.45;;;2.38;;
15273;SDS011;7738;49.532;11.156;2022-11-13T12:12:17;3.50;;;2.00;;
15273;SDS011;7738;49.532;11.156;2022-11-13T12:15:08;2.67;;;2.00;;
15273;SDS011;7738;49.532;11.156;2022-11-13T12:18:01;4.90;;;2.00;;
15273;SDS011;7738;49.532;11.156;2022-11-13T12:20:54;4.15;;;2.10;;
15273;SDS011;7738;49.532;11.156;2022-11-13T12:24:00;3.15;;;2.03;;
15273;SDS011;7738;49.532;11.156;2022-11-13T12:26:51;2.88;;;1.88;;
15273;SDS011;7738;49.532;11.156;2022-11-13T12:29:53;3.10;;;2.03;;
15273;SDS011;7738;49.532;11.156;2022-11-13T12:33:00;2.95;;;1.67;;
15273;SDS011;7738;49.532;11.156;2022-11-13T12:38:40;4.55;;;2.40;;
15273;SDS011;7738;49.532;11.156;2022-11-13T12:41:34;3.25;;;1.95;;
15273;SDS011;7738;49.532;11.156;2022-11-13T12:44:26;4.55;;;2.17;;
15273;SDS011;7738;49.532;11.156;2022-11-13T12:47:17;3.28;;;2.10;;
15273;SDS011;7738;49.532;11.156;2022-11-13T12:50:24;4.93;;;2.28;;
15273;SDS011;7738;49.532;11.156;2022-11-13T12:53:22;3.50;;;2.30;;
15273;SDS011;7738;49.532;11.156;2022-11-13T12:59:03;3.55;;;1.88;;
15273;SDS011;7738;49.532;11.156;2022-11-13T13:02:27;8.88;;;2.60;;
15273;SDS011;7738;49.532;11.156;2022-11-13T13:05:37;3.42;;;2.15;;
15273;SDS011;7738;49.532;11.156;2022-11-13T13:08:34;4.05;;;2.83;;
15273;SDS011;7738;49.532;11.156;2022-11-13T13:11:29;6.28;;;2.42;;
15273;SDS011;7738;49.532;11.156;2022-11-13T13:14:40;5.15;;;2.47;;
15273;SDS011;7738;49.532;11.156;2022-11-13T13:17:31;3.13;;;2.28;;
15273;SDS011;7738;49.532;11.156;2022-11-13T13:20:27;3.45;;;2.35;;
15273;SDS011;7738;49.532;11.156;2022-11-13T13:23:24;4.00;;;2.50;;
15273;SDS011;7738;49.532;11.156;2022-11-13T13:26:15;3.63;;;2.33;;
15273;SDS011;7738;49.532;11.156;2022-11-13T13:29:12;2.78;;;2.10;;
15273;SDS011;7738;49.532;11.156;2022-11-13T13:32:10;7.50;;;2.75;;
15273;SDS011;7738;49.532;11.156;2022-11-13T13:35:07;5.50;;;2.47;;
15273;SDS011;7738;49.532;11.156;2022-11-13T13:38:00;2.92;;;2.10;;
15273;SDS011;7738;49.532;11.156;2022-11-13T13:40:58;3.42;;;2.53;;
15273;SDS011;7738;49.532;11.156;2022-11-13T13:44:02;4.65;;;2.80;;
15273;SDS011;7738;49.532;11.156;2022-11-13T13:47:02;5.28;;;2.35;;
15273;SDS011;7738;49.532;11.156;2022-11-13T13:49:59;3.15;;;2.33;;
15273;SDS011;7738;49.532;11.156;2022-11-13T13:52:48;4.30;;;2.35;;
15273;SDS011;7738;49.532;11.156;2022-11-13T13:55:42;3.05;;;2.58;;
15273;SDS011;7738;49.532;11.156;2022-11-13T13:58:34;3.75;;;2.22;;
15273;SDS011;7738;49.532;11.156;2022-11-13T14:01:27;4.90;;;2.83;;
15273;SDS011;7738;49.532;11.156;2022-11-13T14:04:17;3.15;;;2.33;;
15273;SDS011;7738;49.532;11.156;2022-11-13T14:07:19;5.30;;;3.05;;
15273;SDS011;7738;49.532;11.156;2022-11-13T14:10:13;5.07;;;3.25;;
15273;SDS011;7738;49.532;11.156;2022-11-13T14:13:04;8.88;;;2.78;;
15273;SDS011;7738;49.532;11.156;2022-11-13T14:15:59;4.65;;;2.95;;
15273;SDS011;7738;49.532;11.156;2022-11-13T14:18:49;5.75;;;3.63;;
15273;SDS011;7738;49.532;11.156;2022-11-13T14:21:38;3.95;;;3.33;;
15273;SDS011;7738;49.532;11.156;2022-11-13T14:24:30;5.85;;;3.78;;
15273;SDS011;7738;49.532;11.156;2022-11-13T14:27:21;5.15;;;3.13;;
15273;SDS011;7738;49.532;11.156;2022-11-13T14:30:20;3.80;;;2.72;;
15273;SDS011;7738;49.532;11.156;2022-11-13T14:33:10;4.40;;;2.90;;
15273;SDS011;7738;49.532;11.156;2022-11-13T14:36:01;4.47;;;2.92;;
15273;SDS011;7738;49.532;11.156;2022-11-13T14:38:50;3.72;;;2.42;;
15273;SDS011;7738;49.532;11.156;2022-11-13T14:41:45;3.97;;;2.58;;
15273;SDS011;7738;49.532;11.156;2022-11-13T14:44:35;5.38;;;3.03;;
15273;SDS011;7738;49.532;11.156;2022-11-13T14:47:25;4.53;;;3.00;;
15273;SDS011;7738;49.532;11.156;2022-11-13T14:50:22;7.80;;;3.00;;
15273;SDS011;7738;49.532;11.156;2022-11-13T14:53:13;5.88;;;3.10;;
15273;SDS011;7738;49.532;11.156;2022-11-13T14:56:13;5.35;;;2.72;;
15273;SDS011;7738;49.532;11.156;2022-11-13T14:59:11;4.20;;;2.67;;
15273;SDS011;7738;49.532;11.156;2022-11-13T15:02:04;4.07;;;2.50;;
15273;SDS011;7738;49.532;11.156;2022-11-13T15:04:53;3.38;;;2.65;;
15273;SDS011;7738;49.532;11.156;2022-11-13T15:07:43;4.68;;;2.40;;
15273;SDS011;7738;49.532;11.156;2022-11-13T15:10:32;3.38;;;2.38;;
15273;SDS011;7738;49.532;11.156;2022-11-13T15:13:21;3.35;;;2.70;;
15273;SDS011;7738;49.532;11.156;2022-11-13T15:16:14;6.20;;;2.38;;
15273;SDS011;7738;49.532;11.156;2022-11-13T15:19:04;6.13;;;2.47;;
15273;SDS011;7738;49.532;11.156;2022-11-13T15:21:54;4.53;;;3.20;;
15273;SDS011;7738;49.532;11.156;2022-11-13T15:25:04;5.72;;;2.97;;
15273;SDS011;7738;49.532;11.156;2022-11-13T15:27:59;5.43;;;3.25;;
15273;SDS011;7738;49.532;11.156;2022-11-13T15:30:48;7.10;;;3.72;;
15273;SDS011;7738;49.532;11.156;2022-11-13T15:33:39;5.68;;;3.05;;
15273;SDS011;7738;49.532;11.156;2022-11-13T15:36:28;4.68;;;2.78;;
15273;SDS011;7738;49.532;11.156;2022-11-13T15:39:16;3.85;;;2.83;;
15273;SDS011;7738;49.532;11.156;2022-11-13T15:42:10;5.65;;;3.03;;
15273;SDS011;7738;49.532;11.156;2022-11-13T15:44:59;4.40;;;3.42;;
15273;SDS011;7738;49.532;11.156;2022-11-13T15:47:49;4.05;;;2.47;;
15273;SDS011;7738;49.532;11.156;2022-11-13T15:50:41;3.90;;;2.47;;
15273;SDS011;7738;49.532;11.156;2022-11-13T15:53:30;3.25;;;2.63;;
15273;SDS011;7738;49.532;11.156;2022-11-13T15:56:19;5.35;;;3.78;;
15273;SDS011;7738;49.532;11.156;2022-11-13T15:59:09;3.92;;;3.20;;
15273;SDS011;7738;49.532;11.156;2022-11-13T16:01:59;5.28;;;3.60;;
15273;SDS011;7738;49.532;11.156;2022-11-13T16:04:48;6.03;;;3.70;;
15273;SDS011;7738;49.532;11.156;2022-11-13T16:07:44;6.50;;;4.07;;
15273;SDS011;7738;49.532;11.156;2022-11-13T16:10:33;6.63;;;4.20;;
15273;SDS011;7738;49.532;11.156;2022-11-13T16:13:22;6.03;;;4.28;;
15273;SDS011;7738;49.532;11.156;2022-11-13T16:16:12;5.93;;;4.68;;
15273;SDS011;7738;49.532;11.156;2022-11-13T16:19:02;7.68;;;4.53;;
15273;SDS011;7738;49.532;11.156;2022-11-13T16:21:51;6.25;;;4.82;;
15273;SDS011;7738;49.532;11.156;2022-11-13T16:24:43;6.57;;;5.20;;
15273;SDS011;7738;49.532;11.156;2022-11-13T16:27:31;7.43;;;5.30;;
15273;SDS011;7738;49.532;11.156;2022-11-13T16:30:20;12.40;;;6.22;;
15273;SDS011;7738;49.532;11.156;2022-11-13T16:33:12;11.18;;;6.45;;
15273;SDS011;7738;49.532;11.156;2022-11-13T16:36:01;9.77;;;5.80;;
15273;SDS011;7738;49.532;11.156;2022-11-13T16:38:55;7.90;;;5.68;;
15273;SDS011;7738;49.532;11.156;2022-11-13T16:41:46;9.65;;;6.38;;
15273;SDS011;7738;49.532;11.156;2022-11-13T16:44:35;8.55;;;5.82;;
15273;SDS011;7738;49.532;11.156;2022-11-13T16:47:24;13.73;;;8.07;;
15273;SDS011;7738;49.532;11.156;2022-11-13T16:50:13;7.88;;;6.00;;
15273;SDS011;7738;49.532;11.156;2022-11-13T16:53:03;9.70;;;5.63;;
15273;SDS011;7738;49.532;11.156;2022-11-13T16:55:52;9.93;;;5.93;;
15273;SDS011;7738;49.532;11.156;2022-11-13T16:58:43;9.30;;;5.72;;
15273;SDS011;7738;49.532;11.156;2022-11-13T17:01:32;10.82;;;6.53;;
15273;SDS011;7738;49.532;11.156;2022-11-13T17:04:21;12.93;;;6.65;;
15273;SDS011;7738;49.532;11.156;2022-11-13T17:07:10;10.60;;;6.53;;
15273;SDS011;7738;49.532;11.156;2022-11-13T17:10:00;9.80;;;6.30;;
15273;SDS011;7738;49.532;11.156;2022-11-13T17:13:09;10.45;;;6.63;;
15273;SDS011;7738;49.532;11.156;2022-11-13T17:16:01;12.00;;;6.82;;
15273;SDS011;7738;49.532;11.156;2022-11-13T17:18:50;10.45;;;6.32;;